sensor_id;sensor_type;location;lat;lon;timestamp;P1;durP1;ratioP1;P2;durP2;ratioP2
70213;SDS011;60138;55.808;37.078;2024-01-30T00:01:00;12.67;;;8.40;;
70213;SDS011;60138;55.808;37.078;2024-01-30T00:03:26;12.02;;;7.60;;
70213;SDS011;60138;55.808;37.078;2024-01-30T00:05:52;12.93;;;8.10;;
70213;SDS011;60138;55.808;37.078;2024-01-30T00:08:18;12.55;;;8.43;;
70213;SDS011;60138;55.808;37.078;2024-01-30T00:10:43;8.82;;;6.63;;
70213;SDS011;60138;55.808;37.078;2024-01-30T00:13:09;13.10;;;7.63;;
70213;SDS011;60138;55.808;37.078;2024-01-30T00:15:35;13.07;;;9.07;;
70213;SDS011;60138;55.808;37.078;2024-01-30T00:18:01;12.80;;;7.97;;
70213;SDS011;60138;55.808;37.078;2024-01-30T00:20:26;12.55;;;8.00;;
70213;SDS011;60138;55.808;37.078;2024-01-30T00:22:52;12.23;;;8.20;;
70213;SDS011;60138;55.808;37.078;2024-01-30T00:25:21;15.75;;;9.00;;
70213;SDS011;60138;55.808;37.078;2024-01-30T00:27:46;12.32;;;7.00;;
70213;SDS011;60138;55.808;37.078;2024-01-30T00:30:12;13.50;;;7.80;;
70213;SDS011;60138;55.808;37.078;2024-01-30T00:32:38;11.50;;;8.13;;
70213;SDS011;60138;55.808;37.078;2024-01-30T00:35:04;14.63;;;8.30;;
70213;SDS011;60138;55.808;37.078;2024-01-30T00:37:30;12.45;;;8.15;;
70213;SDS011;60138;55.808;37.078;2024-01-30T00:39:56;12.60;;;7.75;;
70213;SDS011;60138;55.808;37.078;2024-01-30T00:42:22;11.83;;;7.27;;
70213;SDS011;60138;55.808;37.078;2024-01-30T00:44:48;13.50;;;9.48;;
70213;SDS011;60138;55.808;37.078;2024-01-30T00:47:14;13.07;;;8.97;;
70213;SDS011;60138;55.808;37.078;2024-01-30T00:49:39;11.95;;;7.60;;
70213;SDS011;60138;55.808;37.078;2024-01-30T00:52:05;15.25;;;8.50;;
70213;SDS011;60138;55.808;37.078;2024-01-30T00:54:31;11.90;;;7.87;;
70213;SDS011;60138;55.808;37.078;2024-01-30T00:56:57;12.65;;;7.80;;
70213;SDS011;60138;55.808;37.078;2024-01-30T00:59:23;13.80;;;8.37;;
70213;SDS011;60138;55.808;37.078;2024-01-30T01:01:49;12.80;;;8.60;;
70213;SDS011;60138;55.808;37.078;2024-01-30T01:04:14;12.47;;;7.30;;
70213;SDS011;60138;55.808;37.078;2024-01-30T01:06:40;15.90;;;8.48;;
70213;SDS011;60138;55.808;37.078;2024-01-30T01:09:06;13.73;;;8.90;;
70213;SDS011;60138;55.808;37.078;2024-01-30T01:11:39;14.20;;;8.90;;
70213;SDS011;60138;55.808;37.078;2024-01-30T01:14:05;12.73;;;7.35;;
70213;SDS011;60138;55.808;37.078;2024-01-30T01:16:31;12.30;;;7.05;;
70213;SDS011;60138;55.808;37.078;2024-01-30T01:18:57;12.57;;;7.60;;
70213;SDS011;60138;55.808;37.078;2024-01-30T01:21:22;11.18;;;6.90;;
70213;SDS011;60138;55.808;37.078;2024-01-30T01:23:48;11.13;;;7.37;;
70213;SDS011;60138;55.808;37.078;2024-01-30T01:26:14;12.00;;;8.20;;
70213;SDS011;60138;55.808;37.078;2024-01-30T01:28:43;10.20;;;7.27;;
70213;SDS011;60138;55.808;37.078;2024-01-30T01:31:09;11.02;;;7.28;;
70213;SDS011;60138;55.808;37.078;2024-01-30T01:33:35;10.25;;;7.97;;
70213;SDS011;60138;55.808;37.078;2024-01-30T01:36:01;12.37;;;9.63;;
70213;SDS011;60138;55.808;37.078;2024-01-30T01:38:26;11.10;;;7.30;;
70213;SDS011;60138;55.808;37.078;2024-01-30T01:40:52;14.73;;;9.00;;
70213;SDS011;60138;55.808;37.078;2024-01-30T01:43:18;9.57;;;7.05;;
70213;SDS011;60138;55.808;37.078;2024-01-30T01:45:44;13.07;;;8.40;;
70213;SDS011;60138;55.808;37.078;2024-01-30T01:48:10;11.67;;;7.30;;
70213;SDS011;60138;55.808;37.078;2024-01-30T01:50:38;14.32;;;8.45;;
70213;SDS011;60138;55.808;37.078;2024-01-30T01:53:04;14.02;;;8.70;;
70213;SDS011;60138;55.808;37.078;2024-01-30T01:55:33;15.93;;;9.73;;
70213;SDS011;60138;55.808;37.078;2024-01-30T01:58:00;15.07;;;10.00;;
70213;SDS011;60138;55.808;37.078;2024-01-30T02:00:27;12.27;;;7.70;;
70213;SDS011;60138;55.808;37.078;2024-01-30T02:02:54;15.75;;;9.65;;
70213;SDS011;60138;55.808;37.078;2024-01-30T02:05:21;11.95;;;8.95;;
70213;SDS011;60138;55.808;37.078;2024-01-30T02:07:47;12.07;;;8.20;;
70213;SDS011;60138;55.808;37.078;2024-01-30T02:10:13;15.25;;;9.15;;
70213;SDS011;60138;55.808;37.078;2024-01-30T02:12:39;16.17;;;9.07;;
70213;SDS011;60138;55.808;37.078;2024-01-30T02:15:05;12.85;;;8.32;;
70213;SDS011;60138;55.808;37.078;2024-01-30T02:17:38;13.93;;;8.95;;
70213;SDS011;60138;55.808;37.078;2024-01-30T02:20:04;9.73;;;6.90;;
70213;SDS011;60138;55.808;37.078;2024-01-30T02:22:30;12.82;;;7.97;;
70213;SDS011;60138;55.808;37.078;2024-01-30T02:24:59;16.48;;;9.45;;
70213;SDS011;60138;55.808;37.078;2024-01-30T02:27:25;10.13;;;7.43;;
70213;SDS011;60138;55.808;37.078;2024-01-30T02:29:51;10.43;;;7.50;;
70213;SDS011;60138;55.808;37.078;2024-01-30T02:32:17;13.60;;;8.15;;
70213;SDS011;60138;55.808;37.078;2024-01-30T02:34:43;15.63;;;9.00;;
70213;SDS011;60138;55.808;37.078;2024-01-30T02:37:09;16.77;;;9.55;;
70213;SDS011;60138;55.808;37.078;2024-01-30T02:39:35;12.68;;;9.27;;
70213;SDS011;60138;55.808;37.078;2024-01-30T02:42:00;13.48;;;8.82;;
70213;SDS011;60138;55.808;37.078;2024-01-30T02:44:26;15.32;;;9.13;;
70213;SDS011;60138;55.808;37.078;2024-01-30T02:46:52;12.48;;;8.05;;
70213;SDS011;60138;55.808;37.078;2024-01-30T02:49:18;15.52;;;9.15;;
70213;SDS011;60138;55.808;37.078;2024-01-30T02:51:43;14.57;;;8.67;;
70213;SDS011;60138;55.808;37.078;2024-01-30T02:54:09;17.52;;;11.10;;
70213;SDS011;60138;55.808;37.078;2024-01-30T02:56:35;14.60;;;9.33;;
70213;SDS011;60138;55.808;37.078;2024-01-30T02:59:01;18.25;;;9.02;;
70213;SDS011;60138;55.808;37.078;2024-01-30T03:01:27;15.03;;;8.97;;
70213;SDS011;60138;55.808;37.078;2024-01-30T03:03:52;15.00;;;9.32;;
70213;SDS011;60138;55.808;37.078;2024-01-30T03:06:18;13.63;;;7.80;;
70213;SDS011;60138;55.808;37.078;2024-01-30T03:08:44;16.63;;;8.90;;
70213;SDS011;60138;55.808;37.078;2024-01-30T03:11:10;12.85;;;7.78;;
70213;SDS011;60138;55.808;37.078;2024-01-30T03:13:36;15.15;;;9.15;;
70213;SDS011;60138;55.808;37.078;2024-01-30T03:16:01;14.52;;;8.50;;
70213;SDS011;60138;55.808;37.078;2024-01-30T03:18:27;12.30;;;8.88;;
70213;SDS011;60138;55.808;37.078;2024-01-30T03:20:53;13.52;;;8.85;;
70213;SDS011;60138;55.808;37.078;2024-01-30T03:23:19;12.07;;;8.30;;
70213;SDS011;60138;55.808;37.078;2024-01-30T03:25:45;14.25;;;7.95;;
70213;SDS011;60138;55.808;37.078;2024-01-30T03:28:11;13.75;;;9.45;;
70213;SDS011;60138;55.808;37.078;2024-01-30T03:30:36;15.03;;;8.97;;
70213;SDS011;60138;55.808;37.078;2024-01-30T03:33:02;13.00;;;7.97;;
70213;SDS011;60138;55.808;37.078;2024-01-30T03:35:28;16.38;;;11.52;;
70213;SDS011;60138;55.808;37.078;2024-01-30T03:37:54;17.80;;;11.30;;
70213;SDS011;60138;55.808;37.078;2024-01-30T03:40:20;15.02;;;8.63;;
70213;SDS011;60138;55.808;37.078;2024-01-30T03:42:46;18.67;;;10.23;;
70213;SDS011;60138;55.808;37.078;2024-01-30T03:45:12;19.85;;;9.40;;
70213;SDS011;60138;55.808;37.078;2024-01-30T03:47:38;20.43;;;10.77;;
70213;SDS011;60138;55.808;37.078;2024-01-30T03:50:03;16.13;;;8.70;;
70213;SDS011;60138;55.808;37.078;2024-01-30T03:52:30;21.13;;;10.02;;
70213;SDS011;60138;55.808;37.078;2024-01-30T03:54:55;21.47;;;11.57;;
70213;SDS011;60138;55.808;37.078;2024-01-30T03:57:21;17.52;;;10.05;;
70213;SDS011;60138;55.808;37.078;2024-01-30T03:59:47;19.50;;;9.40;;
70213;SDS011;60138;55.808;37.078;2024-01-30T04:02:13;20.45;;;11.77;;
70213;SDS011;60138;55.808;37.078;2024-01-30T04:04:39;20.77;;;11.53;;
70213;SDS011;60138;55.808;37.078;2024-01-30T04:07:05;19.35;;;11.07;;
70213;SDS011;60138;55.808;37.078;2024-01-30T04:09:30;17.73;;;12.38;;
70213;SDS011;60138;55.808;37.078;2024-01-30T04:11:56;12.00;;;7.07;;
70213;SDS011;60138;55.808;37.078;2024-01-30T04:14:22;20.05;;;11.50;;
70213;SDS011;60138;55.808;37.078;2024-01-30T04:16:48;14.88;;;10.70;;
70213;SDS011;60138;55.808;37.078;2024-01-30T04:19:14;19.15;;;11.63;;
70213;SDS011;60138;55.808;37.078;2024-01-30T04:21:40;12.75;;;8.48;;
70213;SDS011;60138;55.808;37.078;2024-01-30T04:24:06;18.20;;;10.30;;
70213;SDS011;60138;55.808;37.078;2024-01-30T04:26:32;12.70;;;8.60;;
70213;SDS011;60138;55.808;37.078;2024-01-30T04:28:57;17.98;;;10.88;;
70213;SDS011;60138;55.808;37.078;2024-01-30T04:31:26;16.65;;;9.32;;
70213;SDS011;60138;55.808;37.078;2024-01-30T04:33:51;16.92;;;9.43;;
70213;SDS011;60138;55.808;37.078;2024-01-30T04:36:17;14.83;;;10.50;;
70213;SDS011;60138;55.808;37.078;2024-01-30T04:38:43;15.18;;;9.63;;
70213;SDS011;60138;55.808;37.078;2024-01-30T04:41:09;15.98;;;9.95;;
70213;SDS011;60138;55.808;37.078;2024-01-30T04:43:35;19.80;;;11.70;;
70213;SDS011;60138;55.808;37.078;2024-01-30T04:46:01;12.25;;;9.10;;
70213;SDS011;60138;55.808;37.078;2024-01-30T04:48:27;22.10;;;13.43;;
70213;SDS011;60138;55.808;37.078;2024-01-30T04:50:53;14.83;;;9.13;;
70213;SDS011;60138;55.808;37.078;2024-01-30T04:53:18;14.02;;;8.38;;
70213;SDS011;60138;55.808;37.078;2024-01-30T04:55:44;16.30;;;10.03;;
70213;SDS011;60138;55.808;37.078;2024-01-30T04:58:10;17.65;;;10.05;;
70213;SDS011;60138;55.808;37.078;2024-01-30T05:00:36;12.98;;;8.43;;
70213;SDS011;60138;55.808;37.078;2024-01-30T05:03:02;17.75;;;11.52;;
70213;SDS011;60138;55.808;37.078;2024-01-30T05:05:28;14.30;;;9.35;;
70213;SDS011;60138;55.808;37.078;2024-01-30T05:07:53;21.83;;;9.80;;
70213;SDS011;60138;55.808;37.078;2024-01-30T05:10:19;19.67;;;10.57;;
70213;SDS011;60138;55.808;37.078;2024-01-30T05:12:45;20.13;;;11.80;;
70213;SDS011;60138;55.808;37.078;2024-01-30T05:15:11;20.40;;;10.57;;
70213;SDS011;60138;55.808;37.078;2024-01-30T05:17:37;12.40;;;7.47;;
70213;SDS011;60138;55.808;37.078;2024-01-30T05:20:03;16.30;;;9.23;;
70213;SDS011;60138;55.808;37.078;2024-01-30T05:22:30;17.70;;;10.65;;
70213;SDS011;60138;55.808;37.078;2024-01-30T05:24:56;21.03;;;12.60;;
70213;SDS011;60138;55.808;37.078;2024-01-30T05:27:21;22.50;;;11.45;;
70213;SDS011;60138;55.808;37.078;2024-01-30T05:29:47;17.60;;;9.68;;
70213;SDS011;60138;55.808;37.078;2024-01-30T05:32:13;16.97;;;11.10;;
70213;SDS011;60138;55.808;37.078;2024-01-30T05:34:39;18.48;;;11.00;;
70213;SDS011;60138;55.808;37.078;2024-01-30T05:37:05;17.75;;;10.35;;
70213;SDS011;60138;55.808;37.078;2024-01-30T05:39:31;12.93;;;8.73;;
70213;SDS011;60138;55.808;37.078;2024-01-30T05:41:57;16.77;;;9.05;;
70213;SDS011;60138;55.808;37.078;2024-01-30T05:44:22;20.13;;;11.90;;
70213;SDS011;60138;55.808;37.078;2024-01-30T05:46:48;20.67;;;10.60;;
70213;SDS011;60138;55.808;37.078;2024-01-30T05:49:14;17.80;;;10.97;;
70213;SDS011;60138;55.808;37.078;2024-01-30T05:51:40;16.33;;;8.73;;
70213;SDS011;60138;55.808;37.078;2024-01-30T05:54:06;17.95;;;8.73;;
70213;SDS011;60138;55.808;37.078;2024-01-30T05:56:31;11.23;;;7.77;;
70213;SDS011;60138;55.808;37.078;2024-01-30T05:58:57;18.75;;;11.40;;
70213;SDS011;60138;55.808;37.078;2024-01-30T06:01:23;17.57;;;11.40;;
70213;SDS011;60138;55.808;37.078;2024-01-30T06:03:49;21.65;;;10.90;;
70213;SDS011;60138;55.808;37.078;2024-01-30T06:06:15;19.77;;;11.50;;
70213;SDS011;60138;55.808;37.078;2024-01-30T06:08:41;14.52;;;9.85;;
70213;SDS011;60138;55.808;37.078;2024-01-30T06:11:09;12.27;;;8.93;;
70213;SDS011;60138;55.808;37.078;2024-01-30T06:13:36;17.00;;;9.80;;
70213;SDS011;60138;55.808;37.078;2024-01-30T06:16:02;21.77;;;12.10;;
70213;SDS011;60138;55.808;37.078;2024-01-30T06:18:28;15.82;;;9.88;;
70213;SDS011;60138;55.808;37.078;2024-01-30T06:20:53;17.40;;;10.20;;
70213;SDS011;60138;55.808;37.078;2024-01-30T06:23:19;21.77;;;11.70;;
70213;SDS011;60138;55.808;37.078;2024-01-30T06:25:45;17.80;;;9.33;;
70213;SDS011;60138;55.808;37.078;2024-01-30T06:28:11;23.10;;;12.85;;
70213;SDS011;60138;55.808;37.078;2024-01-30T06:30:36;19.83;;;12.17;;
70213;SDS011;60138;55.808;37.078;2024-01-30T06:33:02;17.23;;;9.73;;
70213;SDS011;60138;55.808;37.078;2024-01-30T06:35:28;23.38;;;11.52;;
70213;SDS011;60138;55.808;37.078;2024-01-30T06:37:54;20.33;;;10.75;;
70213;SDS011;60138;55.808;37.078;2024-01-30T06:40:23;20.33;;;12.85;;
70213;SDS011;60138;55.808;37.078;2024-01-30T06:42:49;20.88;;;11.57;;
70213;SDS011;60138;55.808;37.078;2024-01-30T06:45:15;21.60;;;12.60;;
70213;SDS011;60138;55.808;37.078;2024-01-30T06:47:41;17.00;;;11.40;;
70213;SDS011;60138;55.808;37.078;2024-01-30T06:50:07;22.38;;;11.82;;
70213;SDS011;60138;55.808;37.078;2024-01-30T06:52:33;20.50;;;11.13;;
70213;SDS011;60138;55.808;37.078;2024-01-30T06:54:59;20.25;;;12.07;;
70213;SDS011;60138;55.808;37.078;2024-01-30T06:57:25;21.92;;;12.27;;
70213;SDS011;60138;55.808;37.078;2024-01-30T06:59:50;25.83;;;11.95;;
70213;SDS011;60138;55.808;37.078;2024-01-30T07:02:16;20.00;;;10.73;;
70213;SDS011;60138;55.808;37.078;2024-01-30T07:04:42;21.20;;;11.80;;
70213;SDS011;60138;55.808;37.078;2024-01-30T07:07:08;23.65;;;13.38;;
70213;SDS011;60138;55.808;37.078;2024-01-30T07:09:34;31.97;;;19.70;;
70213;SDS011;60138;55.808;37.078;2024-01-30T07:11:59;16.90;;;11.02;;
70213;SDS011;60138;55.808;37.078;2024-01-30T07:14:25;19.58;;;11.75;;
70213;SDS011;60138;55.808;37.078;2024-01-30T07:16:51;18.73;;;10.90;;
70213;SDS011;60138;55.808;37.078;2024-01-30T07:19:17;13.00;;;8.10;;
70213;SDS011;60138;55.808;37.078;2024-01-30T07:21:43;20.60;;;12.40;;
70213;SDS011;60138;55.808;37.078;2024-01-30T07:24:09;21.23;;;12.20;;
70213;SDS011;60138;55.808;37.078;2024-01-30T07:26:35;22.25;;;11.10;;
70213;SDS011;60138;55.808;37.078;2024-01-30T07:29:01;14.07;;;9.30;;
70213;SDS011;60138;55.808;37.078;2024-01-30T07:31:27;22.70;;;8.57;;
70213;SDS011;60138;55.808;37.078;2024-01-30T07:33:53;23.17;;;12.10;;
70213;SDS011;60138;55.808;37.078;2024-01-30T07:36:19;31.63;;;16.65;;
70213;SDS011;60138;55.808;37.078;2024-01-30T07:38:45;30.20;;;15.82;;
70213;SDS011;60138;55.808;37.078;2024-01-30T07:41:10;18.55;;;10.57;;
70213;SDS011;60138;55.808;37.078;2024-01-30T07:43:37;22.23;;;10.63;;
70213;SDS011;60138;55.808;37.078;2024-01-30T07:46:04;23.35;;;13.75;;
70213;SDS011;60138;55.808;37.078;2024-01-30T07:48:30;25.43;;;13.80;;
70213;SDS011;60138;55.808;37.078;2024-01-30T07:50:56;20.70;;;11.77;;
70213;SDS011;60138;55.808;37.078;2024-01-30T07:53:21;17.73;;;10.70;;
70213;SDS011;60138;55.808;37.078;2024-01-30T07:55:47;24.17;;;12.27;;
70213;SDS011;60138;55.808;37.078;2024-01-30T07:58:13;21.25;;;12.23;;
70213;SDS011;60138;55.808;37.078;2024-01-30T08:00:39;29.03;;;14.53;;
70213;SDS011;60138;55.808;37.078;2024-01-30T08:03:05;23.08;;;13.55;;
70213;SDS011;60138;55.808;37.078;2024-01-30T08:05:32;20.52;;;10.60;;
70213;SDS011;60138;55.808;37.078;2024-01-30T08:07:57;25.07;;;13.83;;
70213;SDS011;60138;55.808;37.078;2024-01-30T08:10:23;23.70;;;13.10;;
70213;SDS011;60138;55.808;37.078;2024-01-30T08:12:50;28.27;;;15.23;;
70213;SDS011;60138;55.808;37.078;2024-01-30T08:15:16;26.67;;;15.07;;
70213;SDS011;60138;55.808;37.078;2024-01-30T08:17:42;21.20;;;13.68;;
70213;SDS011;60138;55.808;37.078;2024-01-30T08:20:09;23.17;;;14.40;;
70213;SDS011;60138;55.808;37.078;2024-01-30T08:22:35;26.07;;;12.77;;
70213;SDS011;60138;55.808;37.078;2024-01-30T08:25:01;18.88;;;11.93;;
70213;SDS011;60138;55.808;37.078;2024-01-30T08:27:26;26.77;;;15.27;;
70213;SDS011;60138;55.808;37.078;2024-01-30T08:29:52;13.70;;;10.05;;
70213;SDS011;60138;55.808;37.078;2024-01-30T08:32:18;24.80;;;14.35;;
70213;SDS011;60138;55.808;37.078;2024-01-30T08:34:44;28.33;;;13.23;;
70213;SDS011;60138;55.808;37.078;2024-01-30T08:37:10;19.33;;;11.32;;
70213;SDS011;60138;55.808;37.078;2024-01-30T08:39:37;17.20;;;10.05;;
70213;SDS011;60138;55.808;37.078;2024-01-30T08:42:03;23.10;;;12.03;;
70213;SDS011;60138;55.808;37.078;2024-01-30T08:44:29;16.80;;;8.98;;
70213;SDS011;60138;55.808;37.078;2024-01-30T08:46:55;26.48;;;14.48;;
70213;SDS011;60138;55.808;37.078;2024-01-30T08:49:21;25.60;;;12.17;;
70213;SDS011;60138;55.808;37.078;2024-01-30T08:51:47;26.90;;;13.15;;
70213;SDS011;60138;55.808;37.078;2024-01-30T08:54:12;24.77;;;14.83;;
70213;SDS011;60138;55.808;37.078;2024-01-30T08:56:38;19.83;;;11.23;;
70213;SDS011;60138;55.808;37.078;2024-01-30T08:59:04;20.80;;;10.48;;
70213;SDS011;60138;55.808;37.078;2024-01-30T09:01:30;19.20;;;11.02;;
70213;SDS011;60138;55.808;37.078;2024-01-30T09:03:56;29.42;;;13.40;;
70213;SDS011;60138;55.808;37.078;2024-01-30T09:06:22;30.17;;;16.57;;
70213;SDS011;60138;55.808;37.078;2024-01-30T09:08:48;15.75;;;8.98;;
70213;SDS011;60138;55.808;37.078;2024-01-30T09:11:14;23.27;;;11.73;;
70213;SDS011;60138;55.808;37.078;2024-01-30T09:13:40;25.55;;;14.02;;
70213;SDS011;60138;55.808;37.078;2024-01-30T09:16:06;26.88;;;14.75;;
70213;SDS011;60138;55.808;37.078;2024-01-30T09:18:33;21.95;;;14.02;;
70213;SDS011;60138;55.808;37.078;2024-01-30T09:20:58;28.90;;;13.27;;
70213;SDS011;60138;55.808;37.078;2024-01-30T09:23:26;32.53;;;16.63;;
70213;SDS011;60138;55.808;37.078;2024-01-30T09:25:52;22.08;;;13.82;;
70213;SDS011;60138;55.808;37.078;2024-01-30T09:28:18;26.50;;;14.45;;
70213;SDS011;60138;55.808;37.078;2024-01-30T09:30:44;25.83;;;15.00;;
70213;SDS011;60138;55.808;37.078;2024-01-30T09:33:10;30.83;;;16.30;;
70213;SDS011;60138;55.808;37.078;2024-01-30T09:35:36;19.48;;;9.57;;
70213;SDS011;60138;55.808;37.078;2024-01-30T09:38:02;20.08;;;11.18;;
70213;SDS011;60138;55.808;37.078;2024-01-30T09:40:28;21.37;;;10.97;;
70213;SDS011;60138;55.808;37.078;2024-01-30T09:42:54;28.15;;;13.85;;
70213;SDS011;60138;55.808;37.078;2024-01-30T09:45:24;27.02;;;14.25;;
70213;SDS011;60138;55.808;37.078;2024-01-30T09:47:51;37.33;;;20.77;;
70213;SDS011;60138;55.808;37.078;2024-01-30T09:50:18;31.80;;;15.43;;
70213;SDS011;60138;55.808;37.078;2024-01-30T09:52:44;18.75;;;9.65;;
70213;SDS011;60138;55.808;37.078;2024-01-30T09:55:11;36.88;;;16.83;;
70213;SDS011;60138;55.808;37.078;2024-01-30T09:57:37;31.15;;;15.15;;
70213;SDS011;60138;55.808;37.078;2024-01-30T10:00:04;31.73;;;15.50;;
70213;SDS011;60138;55.808;37.078;2024-01-30T10:02:38;25.17;;;13.02;;
70213;SDS011;60138;55.808;37.078;2024-01-30T10:05:05;30.33;;;15.73;;
70213;SDS011;60138;55.808;37.078;2024-01-30T10:07:31;30.75;;;15.77;;
70213;SDS011;60138;55.808;37.078;2024-01-30T10:09:56;27.60;;;15.75;;
70213;SDS011;60138;55.808;37.078;2024-01-30T10:12:22;23.47;;;13.07;;
70213;SDS011;60138;55.808;37.078;2024-01-30T10:14:48;30.88;;;14.88;;
70213;SDS011;60138;55.808;37.078;2024-01-30T10:17:14;28.70;;;15.15;;
70213;SDS011;60138;55.808;37.078;2024-01-30T10:19:41;27.25;;;12.20;;
70213;SDS011;60138;55.808;37.078;2024-01-30T10:22:07;18.42;;;10.50;;
70213;SDS011;60138;55.808;37.078;2024-01-30T10:24:35;21.92;;;12.27;;
70213;SDS011;60138;55.808;37.078;2024-01-30T10:27:01;26.37;;;14.33;;
70213;SDS011;60138;55.808;37.078;2024-01-30T10:29:29;24.35;;;13.05;;
70213;SDS011;60138;55.808;37.078;2024-01-30T10:31:58;27.05;;;13.40;;
70213;SDS011;60138;55.808;37.078;2024-01-30T10:34:27;26.00;;;16.05;;
70213;SDS011;60138;55.808;37.078;2024-01-30T10:37:06;29.27;;;14.80;;
70213;SDS011;60138;55.808;37.078;2024-01-30T10:39:35;20.60;;;13.20;;
70213;SDS011;60138;55.808;37.078;2024-01-30T10:42:04;37.42;;;18.02;;
70213;SDS011;60138;55.808;37.078;2024-01-30T10:44:43;29.08;;;17.02;;
70213;SDS011;60138;55.808;37.078;2024-01-30T10:47:31;35.55;;;17.92;;
70213;SDS011;60138;55.808;37.078;2024-01-30T10:49:59;34.47;;;16.80;;
70213;SDS011;60138;55.808;37.078;2024-01-30T10:52:28;25.90;;;12.15;;
70213;SDS011;60138;55.808;37.078;2024-01-30T10:54:54;21.93;;;12.60;;
70213;SDS011;60138;55.808;37.078;2024-01-30T10:57:27;30.10;;;14.65;;
70213;SDS011;60138;55.808;37.078;2024-01-30T10:59:57;25.88;;;14.15;;
70213;SDS011;60138;55.808;37.078;2024-01-30T11:02:25;24.35;;;14.82;;
70213;SDS011;60138;55.808;37.078;2024-01-30T11:04:58;31.97;;;14.17;;
70213;SDS011;60138;55.808;37.078;2024-01-30T11:07:28;22.80;;;12.23;;
70213;SDS011;60138;55.808;37.078;2024-01-30T11:12:24;22.58;;;13.15;;
70213;SDS011;60138;55.808;37.078;2024-01-30T11:17:43;27.98;;;13.82;;
70213;SDS011;60138;55.808;37.078;2024-01-30T11:22:44;30.97;;;13.80;;
70213;SDS011;60138;55.808;37.078;2024-01-30T11:25:14;27.50;;;14.85;;
70213;SDS011;60138;55.808;37.078;2024-01-30T11:27:42;30.67;;;14.77;;
70213;SDS011;60138;55.808;37.078;2024-01-30T11:30:08;25.13;;;13.82;;
70213;SDS011;60138;55.808;37.078;2024-01-30T11:32:35;22.93;;;13.80;;
70213;SDS011;60138;55.808;37.078;2024-01-30T11:35:04;22.42;;;11.95;;
70213;SDS011;60138;55.808;37.078;2024-01-30T11:37:31;21.38;;;11.85;;
70213;SDS011;60138;55.808;37.078;2024-01-30T11:39:57;24.23;;;13.57;;
70213;SDS011;60138;55.808;37.078;2024-01-30T11:42:24;16.33;;;9.63;;
70213;SDS011;60138;55.808;37.078;2024-01-30T11:44:50;32.60;;;13.15;;
70213;SDS011;60138;55.808;37.078;2024-01-30T11:47:15;27.55;;;14.15;;
70213;SDS011;60138;55.808;37.078;2024-01-30T11:49:42;27.42;;;16.80;;
70213;SDS011;60138;55.808;37.078;2024-01-30T11:52:09;25.85;;;14.25;;
70213;SDS011;60138;55.808;37.078;2024-01-30T11:54:35;24.40;;;12.75;;
70213;SDS011;60138;55.808;37.078;2024-01-30T11:57:01;23.65;;;13.20;;
70213;SDS011;60138;55.808;37.078;2024-01-30T11:59:27;33.22;;;15.27;;
70213;SDS011;60138;55.808;37.078;2024-01-30T12:01:52;38.28;;;16.88;;
70213;SDS011;60138;55.808;37.078;2024-01-30T12:04:18;32.08;;;15.18;;
70213;SDS011;60138;55.808;37.078;2024-01-30T12:06:44;36.03;;;15.13;;
70213;SDS011;60138;55.808;37.078;2024-01-30T12:09:10;45.67;;;19.48;;
70213;SDS011;60138;55.808;37.078;2024-01-30T12:11:43;34.65;;;16.58;;
70213;SDS011;60138;55.808;37.078;2024-01-30T12:14:12;31.90;;;16.67;;
70213;SDS011;60138;55.808;37.078;2024-01-30T12:16:39;61.33;;;22.90;;
70213;SDS011;60138;55.808;37.078;2024-01-30T12:19:05;51.83;;;21.15;;
70213;SDS011;60138;55.808;37.078;2024-01-30T12:21:31;40.47;;;18.33;;
70213;SDS011;60138;55.808;37.078;2024-01-30T12:23:57;44.83;;;19.10;;
70213;SDS011;60138;55.808;37.078;2024-01-30T12:26:23;54.10;;;19.17;;
70213;SDS011;60138;55.808;37.078;2024-01-30T12:28:49;40.13;;;18.57;;
70213;SDS011;60138;55.808;37.078;2024-01-30T12:31:15;36.28;;;16.17;;
70213;SDS011;60138;55.808;37.078;2024-01-30T12:33:41;34.35;;;15.60;;
70213;SDS011;60138;55.808;37.078;2024-01-30T12:36:07;28.87;;;15.40;;
70213;SDS011;60138;55.808;37.078;2024-01-30T12:38:33;40.10;;;17.25;;
70213;SDS011;60138;55.808;37.078;2024-01-30T12:40:59;33.28;;;16.38;;
70213;SDS011;60138;55.808;37.078;2024-01-30T12:43:25;35.20;;;17.17;;
70213;SDS011;60138;55.808;37.078;2024-01-30T12:45:52;26.15;;;13.82;;
70213;SDS011;60138;55.808;37.078;2024-01-30T12:48:18;24.98;;;13.88;;
70213;SDS011;60138;55.808;37.078;2024-01-30T12:50:44;32.37;;;14.83;;
70213;SDS011;60138;55.808;37.078;2024-01-30T12:53:10;33.60;;;15.95;;
70213;SDS011;60138;55.808;37.078;2024-01-30T12:55:36;35.13;;;13.93;;
70213;SDS011;60138;55.808;37.078;2024-01-30T12:58:01;35.38;;;15.23;;
70213;SDS011;60138;55.808;37.078;2024-01-30T13:00:27;33.15;;;15.57;;
70213;SDS011;60138;55.808;37.078;2024-01-30T13:02:53;29.90;;;13.73;;
70213;SDS011;60138;55.808;37.078;2024-01-30T13:05:19;32.90;;;15.52;;
70213;SDS011;60138;55.808;37.078;2024-01-30T13:07:45;35.65;;;16.58;;
70213;SDS011;60138;55.808;37.078;2024-01-30T13:10:11;37.03;;;16.33;;
70213;SDS011;60138;55.808;37.078;2024-01-30T13:12:37;35.10;;;17.05;;
70213;SDS011;60138;55.808;37.078;2024-01-30T13:15:03;30.40;;;15.37;;
70213;SDS011;60138;55.808;37.078;2024-01-30T13:17:33;25.77;;;12.60;;
70213;SDS011;60138;55.808;37.078;2024-01-30T13:19:59;33.95;;;14.30;;
70213;SDS011;60138;55.808;37.078;2024-01-30T13:22:25;34.43;;;14.47;;
70213;SDS011;60138;55.808;37.078;2024-01-30T13:24:51;29.25;;;13.27;;
70213;SDS011;60138;55.808;37.078;2024-01-30T13:27:16;34.25;;;14.90;;
70213;SDS011;60138;55.808;37.078;2024-01-30T13:29:46;29.35;;;14.32;;
70213;SDS011;60138;55.808;37.078;2024-01-30T13:32:12;29.48;;;14.52;;
70213;SDS011;60138;55.808;37.078;2024-01-30T13:34:38;34.35;;;14.95;;
70213;SDS011;60138;55.808;37.078;2024-01-30T13:37:04;35.07;;;17.40;;
70213;SDS011;60138;55.808;37.078;2024-01-30T13:39:30;34.92;;;16.60;;
70213;SDS011;60138;55.808;37.078;2024-01-30T13:41:55;52.10;;;20.07;;
70213;SDS011;60138;55.808;37.078;2024-01-30T13:44:21;39.00;;;16.48;;
70213;SDS011;60138;55.808;37.078;2024-01-30T13:46:47;46.80;;;19.38;;
70213;SDS011;60138;55.808;37.078;2024-01-30T13:49:13;51.83;;;19.33;;
70213;SDS011;60138;55.808;37.078;2024-01-30T13:51:39;48.70;;;19.10;;
70213;SDS011;60138;55.808;37.078;2024-01-30T13:54:05;47.73;;;19.33;;
70213;SDS011;60138;55.808;37.078;2024-01-30T13:56:30;46.92;;;19.15;;
70213;SDS011;60138;55.808;37.078;2024-01-30T13:58:56;49.28;;;17.40;;
70213;SDS011;60138;55.808;37.078;2024-01-30T14:01:22;54.85;;;19.30;;
70213;SDS011;60138;55.808;37.078;2024-01-30T14:03:48;60.15;;;19.85;;
70213;SDS011;60138;55.808;37.078;2024-01-30T14:06:14;32.03;;;15.47;;
70213;SDS011;60138;55.808;37.078;2024-01-30T14:08:40;62.85;;;20.85;;
70213;SDS011;60138;55.808;37.078;2024-01-30T14:11:06;45.92;;;18.58;;
70213;SDS011;60138;55.808;37.078;2024-01-30T14:13:32;38.53;;;16.55;;
70213;SDS011;60138;55.808;37.078;2024-01-30T14:15:58;47.53;;;18.60;;